createdAt,value
2018-02-16T00:00:11.395Z,2.92
2018-02-16T00:01:11.361Z,3.03
2018-02-16T00:02:11.339Z,2.98
2018-02-16T00:03:11.325Z,2.86
2018-02-16T00:04:11.320Z,2.72
2018-02-16T00:05:11.305Z,2.71
2018-02-16T00:06:11.291Z,2.56
2018-02-16T00:07:11.280Z,2.50
2018-02-16T00:08:11.269Z,2.56
2018-02-16T00:09:11.258Z,2.50
2018-02-16T00:10:11.247Z,2.43
2018-02-16T00:11:11.236Z,2.36
2018-02-16T00:12:11.247Z,2.38
2018-02-16T00:13:11.213Z,2.22
2018-02-16T00:14:11.202Z,2.17
2018-02-16T00:15:11.183Z,2.17
2018-02-16T00:16:11.178Z,2.31
2018-02-16T00:17:11.161Z,2.26
2018-02-16T00:18:11.155Z,2.32
2018-02-16T00:19:11.144Z,2.28
2018-02-16T00:20:11.125Z,2.35
2018-02-16T00:21:11.117Z,2.42
2018-02-16T00:22:11.104Z,2.39
2018-02-16T00:23:11.106Z,2.28
2018-02-16T00:24:11.083Z,2.00
2018-02-16T00:25:11.079Z,2.06
2018-02-16T00:26:11.058Z,2.07
2018-02-16T00:27:11.058Z,2.14
2018-02-16T00:28:11.034Z,2.10
2018-02-16T00:29:11.036Z,2.15
2018-02-16T00:30:11.011Z,2.22
2018-02-16T00:31:10.995Z,2.22
2018-02-16T00:32:10.999Z,2.20
2018-02-16T00:33:10.988Z,2.11
2018-02-16T00:34:10.971Z,2.10
2018-02-16T00:35:10.948Z,2.06
2018-02-16T00:36:10.935Z,1.92
2018-02-16T00:37:10.929Z,2.04
2018-02-16T00:38:10.913Z,2.06
2018-02-16T00:39:10.914Z,2.02
2018-02-16T00:40:10.903Z,2.00
2018-02-16T00:41:10.878Z,2.02
2018-02-16T00:42:10.862Z,1.99
2018-02-16T00:43:10.848Z,2.14
2018-02-16T00:44:10.849Z,2.08
2018-02-16T00:45:10.829Z,2.06
2018-02-16T00:46:10.819Z,2.14
2018-02-16T00:47:10.802Z,2.06
2018-02-16T00:48:10.792Z,2.08
2018-02-16T00:49:10.785Z,2.08
2018-02-16T00:50:10.769Z,2.17
2018-02-16T00:51:10.755Z,2.11
2018-02-16T00:52:10.740Z,2.07
2018-02-16T00:53:10.754Z,2.17
2018-02-16T00:54:10.720Z,2.13
2018-02-16T00:55:10.730Z,2.18
2018-02-16T00:56:10.703Z,2.07
2018-02-16T00:57:10.682Z,2.08
2018-02-16T00:58:10.682Z,2.17
2018-02-16T00:59:10.654Z,2.06
2018-02-16T01:00:10.648Z,2.17
2018-02-16T01:01:10.638Z,2.08
2018-02-16T01:02:10.616Z,2.14
2018-02-16T01:03:10.610Z,2.10
2018-02-16T01:04:10.624Z,2.00
2018-02-16T01:05:10.586Z,2.11
2018-02-16T01:06:10.578Z,2.11
2018-02-16T01:07:10.559Z,2.02
2018-02-16T01:08:10.545Z,1.91
2018-02-16T01:09:10.550Z,2.00
2018-02-16T01:10:10.518Z,1.94
2018-02-16T01:11:10.505Z,1.91
2018-02-16T01:12:10.518Z,1.95
2018-02-16T01:13:10.486Z,1.88
2018-02-16T01:14:10.480Z,1.91
2018-02-16T01:15:10.461Z,1.91
2018-02-16T01:16:10.443Z,1.97
2018-02-16T01:17:10.440Z,1.95
2018-02-16T01:18:10.420Z,1.80
2018-02-16T01:19:10.430Z,1.85
2018-02-16T01:20:10.417Z,1.81
2018-02-16T01:21:10.395Z,1.78
2018-02-16T01:22:10.386Z,1.80
2018-02-16T01:23:10.364Z,1.76
2018-02-16T01:24:10.344Z,1.76
2018-02-16T01:25:10.349Z,1.74
2018-02-16T01:26:10.336Z,1.68
2018-02-16T01:27:10.308Z,1.67
2018-02-16T01:28:10.342Z,1.74
2018-02-16T01:29:10.310Z,1.74
2018-02-16T01:30:10.289Z,1.76
2018-02-16T01:31:10.262Z,1.74
2018-02-16T01:32:10.247Z,1.71
2018-02-16T01:33:10.256Z,1.73
2018-02-16T01:34:10.266Z,1.77
2018-02-16T01:35:10.227Z,1.63
2018-02-16T01:36:10.204Z,1.66
2018-02-16T01:37:10.188Z,1.60
2018-02-16T01:38:10.182Z,1.59
2018-02-16T01:39:10.183Z,1.56
2018-02-16T01:40:10.148Z,1.63
2018-02-16T01:41:10.159Z,1.56
2018-02-16T01:42:10.127Z,1.52
2018-02-16T01:43:10.144Z,1.53
2018-02-16T01:44:10.102Z,1.52
2018-02-16T01:45:10.120Z,1.41
2018-02-16T01:46:10.105Z,1.44
2018-02-16T01:47:10.060Z,1.41
2018-02-16T01:48:10.042Z,1.48
2018-02-16T01:49:10.053Z,1.42
2018-02-16T01:50:10.034Z,1.42
2018-02-16T01:51:10.011Z,1.45
2018-02-16T01:52:09.994Z,1.42
2018-02-16T01:53:09.981Z,1.42
2018-02-16T01:54:10.018Z,1.42
2018-02-16T01:55:09.989Z,1.42
2018-02-16T01:56:09.987Z,1.41
2018-02-16T01:57:09.937Z,1.38
2018-02-16T01:58:09.918Z,1.40
2018-02-16T01:59:09.921Z,1.35
2018-02-16T02:00:09.904Z,1.34
2018-02-16T02:01:09.881Z,1.34
2018-02-16T02:02:09.932Z,1.34
2018-02-16T02:03:09.855Z,1.35
2018-02-16T02:04:09.840Z,1.26
2018-02-16T02:05:09.852Z,1.32
2018-02-16T02:06:09.836Z,1.28
2018-02-16T02:07:09.815Z,1.32
2018-02-16T02:08:09.791Z,1.24
2018-02-16T02:09:09.775Z,1.22
2018-02-16T02:10:09.793Z,1.19
2018-02-16T02:11:09.779Z,1.23
2018-02-16T02:12:09.741Z,1.22
2018-02-16T02:13:09.762Z,1.22
2018-02-16T02:14:09.729Z,1.10
2018-02-16T02:15:09.705Z,1.14
2018-02-16T02:16:09.720Z,1.20
2018-02-16T02:17:09.680Z,1.17
2018-02-16T02:18:09.690Z,1.24
2018-02-16T02:19:09.651Z,1.19
2018-02-16T02:20:09.649Z,1.12
2018-02-16T02:21:09.656Z,1.14
2018-02-16T02:22:09.656Z,1.17
2018-02-16T02:23:09.608Z,1.26
2018-02-16T02:24:09.593Z,1.17
2018-02-16T02:25:09.634Z,1.26
2018-02-16T02:26:09.578Z,1.31
2018-02-16T02:27:09.544Z,1.24
2018-02-16T02:28:09.586Z,1.16
2018-02-16T02:29:09.522Z,1.19
2018-02-16T02:30:09.554Z,1.26
2018-02-16T02:31:09.605Z,1.20
2018-02-16T02:32:09.499Z,1.13
2018-02-16T02:33:09.472Z,1.10
2018-02-16T02:34:09.469Z,1.12
2018-02-16T02:35:09.445Z,1.10
2018-02-16T02:36:09.448Z,1.13
2018-02-16T02:37:09.450Z,1.17
2018-02-16T02:38:09.441Z,1.14
2018-02-16T02:39:09.406Z,1.14
2018-02-16T02:40:09.378Z,1.14
2018-02-16T02:41:09.390Z,1.16
2018-02-16T02:42:09.374Z,1.13
2018-02-16T02:43:09.338Z,1.13
2018-02-16T02:44:09.329Z,1.16
2018-02-16T02:45:09.342Z,1.24
2018-02-16T02:46:09.304Z,1.24
2018-02-16T02:47:09.289Z,1.23
2018-02-16T02:48:09.286Z,1.34
2018-02-16T02:49:09.287Z,1.30
2018-02-16T02:50:09.276Z,1.28
2018-02-16T02:51:09.236Z,1.31
2018-02-16T02:52:09.288Z,1.37
2018-02-16T02:53:09.228Z,1.30
2018-02-16T02:54:09.222Z,1.40
2018-02-16T02:55:09.188Z,1.24
2018-02-16T02:56:09.168Z,1.32
2018-02-16T02:57:09.226Z,1.31
2018-02-16T02:58:09.191Z,1.34
2018-02-16T02:59:09.140Z,1.28
2018-02-16T03:00:09.125Z,1.30
2018-02-16T03:01:09.108Z,1.31
2018-02-16T03:02:09.127Z,1.34
2018-02-16T03:03:09.093Z,1.30
2018-02-16T03:04:09.074Z,1.38
2018-02-16T03:05:09.068Z,1.30
2018-02-16T03:06:09.045Z,1.30
2018-02-16T03:07:09.044Z,1.32
2018-02-16T03:08:09.039Z,1.30
2018-02-16T03:09:09.000Z,1.32
2018-02-16T03:10:08.993Z,1.31
2018-02-16T03:11:08.986Z,1.32
2018-02-16T03:12:08.969Z,1.35
2018-02-16T03:13:08.962Z,1.34
2018-02-16T03:14:08.961Z,1.26
2018-02-16T03:15:08.925Z,1.34
2018-02-16T03:16:08.913Z,1.24
2018-02-16T03:17:08.898Z,1.28
2018-02-16T03:18:08.898Z,1.31
2018-02-16T03:19:08.886Z,1.19
2018-02-16T03:20:08.862Z,1.28
2018-02-16T03:21:08.868Z,1.24
2018-02-16T03:22:08.832Z,1.23
2018-02-16T03:23:08.824Z,1.24
2018-02-16T03:24:08.814Z,1.26
2018-02-16T03:25:08.792Z,1.30
2018-02-16T03:26:08.782Z,1.17
2018-02-16T03:27:08.784Z,1.26
2018-02-16T03:28:08.774Z,1.20
2018-02-16T03:29:08.747Z,1.26
2018-02-16T03:30:08.731Z,1.24
2018-02-16T03:31:08.720Z,1.20
2018-02-16T03:32:08.732Z,1.28
2018-02-16T03:33:08.909Z,1.23
2018-02-16T03:34:08.692Z,1.30
2018-02-16T03:35:08.665Z,1.22
2018-02-16T03:36:08.654Z,1.16
2018-02-16T03:37:08.645Z,1.17
2018-02-16T03:38:08.654Z,1.19
2018-02-16T03:39:08.633Z,1.14
2018-02-16T03:40:08.601Z,1.20
2018-02-16T03:41:08.592Z,1.13
2018-02-16T03:42:08.596Z,1.14
2018-02-16T03:43:08.567Z,1.06
2018-02-16T03:44:08.572Z,1.14
2018-02-16T03:45:08.535Z,1.14
2018-02-16T03:46:08.535Z,1.17
2018-02-16T03:47:08.524Z,1.17
2018-02-16T03:48:08.498Z,1.19
2018-02-16T03:49:08.532Z,1.28
2018-02-16T03:50:08.475Z,1.22
2018-02-16T03:51:08.457Z,1.23
2018-02-16T03:52:08.452Z,1.19
2018-02-16T03:53:08.426Z,1.19
2018-02-16T03:54:08.427Z,1.19
2018-02-16T03:55:08.430Z,1.19
2018-02-16T03:56:08.392Z,1.19
2018-02-16T03:57:08.388Z,1.16
2018-02-16T03:58:08.372Z,1.14
2018-02-16T03:59:44.161Z,1.13
2018-02-16T04:00:10.150Z,1.14
2018-02-16T04:01:08.324Z,1.14
2018-02-16T04:02:08.331Z,1.13
2018-02-16T04:03:08.303Z,1.13
2018-02-16T04:04:08.284Z,1.19
2018-02-16T04:05:08.271Z,1.12
2018-02-16T04:06:08.263Z,1.10
2018-02-16T04:07:08.261Z,1.08
2018-02-16T04:08:08.261Z,1.12
2018-02-16T04:09:08.223Z,1.20
2018-02-16T04:10:08.219Z,1.17
2018-02-16T04:11:08.192Z,1.17
2018-02-16T04:12:08.181Z,1.12
2018-02-16T04:13:08.177Z,1.13
2018-02-16T04:14:08.189Z,1.08
2018-02-16T04:15:08.151Z,1.12
2018-02-16T04:16:08.133Z,1.13
2018-02-16T04:17:08.114Z,1.13
2018-02-16T04:18:08.102Z,1.06
2018-02-16T04:19:08.092Z,0.99
2018-02-16T04:20:08.093Z,0.98
2018-02-16T04:21:08.101Z,1.02
2018-02-16T04:22:08.077Z,0.95
2018-02-16T04:23:08.037Z,1.01
2018-02-16T04:24:08.025Z,1.04
2018-02-16T04:25:08.007Z,1.05
2018-02-16T04:26:08.009Z,0.98
2018-02-16T04:27:07.987Z,1.04
2018-02-16T04:28:07.973Z,1.06
2018-02-16T04:29:07.959Z,0.98
2018-02-16T04:30:07.946Z,0.96
2018-02-16T04:31:07.931Z,0.99
2018-02-16T04:32:07.945Z,1.02
2018-02-16T04:33:07.902Z,0.99
2018-02-16T04:34:07.897Z,0.98
2018-02-16T04:35:07.897Z,1.10
2018-02-16T04:36:07.886Z,1.01
2018-02-16T04:37:07.857Z,0.96
2018-02-16T04:38:07.844Z,1.02
2018-02-16T04:39:07.825Z,1.01
2018-02-16T04:40:07.828Z,0.92
2018-02-16T04:41:07.817Z,0.95
2018-02-16T04:42:07.791Z,0.96
2018-02-16T04:43:07.775Z,0.94
2018-02-16T04:44:07.779Z,0.98
2018-02-16T04:45:07.756Z,0.99
2018-02-16T04:46:07.747Z,0.95
2018-02-16T04:47:07.724Z,0.99
2018-02-16T04:48:07.720Z,0.92
2018-02-16T04:49:07.714Z,0.81
2018-02-16T04:50:07.678Z,0.83
2018-02-16T04:51:07.667Z,0.94
2018-02-16T04:52:07.662Z,0.87
2018-02-16T04:53:07.642Z,0.81
2018-02-16T04:54:07.631Z,0.87
2018-02-16T04:55:07.618Z,0.87
2018-02-16T04:56:07.618Z,0.84
2018-02-16T04:57:07.610Z,0.84
2018-02-16T04:58:07.577Z,0.88
2018-02-16T04:59:07.562Z,0.86
2018-02-16T05:00:07.550Z,0.88
2018-02-16T05:01:07.542Z,0.84
2018-02-16T05:02:07.542Z,0.83
2018-02-16T05:03:07.511Z,0.81
2018-02-16T05:04:07.502Z,0.91
2018-02-16T05:05:07.487Z,0.98
2018-02-16T05:06:07.502Z,0.96
2018-02-16T05:07:07.465Z,0.96
2018-02-16T05:08:07.444Z,0.98
2018-02-16T05:09:07.444Z,0.95
2018-02-16T05:10:07.449Z,0.92
2018-02-16T05:11:07.417Z,0.94
2018-02-16T05:12:07.395Z,0.86
2018-02-16T05:13:07.388Z,0.81
2018-02-16T05:14:07.367Z,0.91
2018-02-16T05:15:07.350Z,0.88
2018-02-16T05:16:07.362Z,0.83
2018-02-16T05:17:07.357Z,0.94
2018-02-16T05:18:07.334Z,0.84
2018-02-16T05:19:07.302Z,0.86
2018-02-16T05:20:07.293Z,0.95
2018-02-16T05:21:07.280Z,0.92
2018-02-16T05:22:07.293Z,0.94
2018-02-16T05:23:07.247Z,0.96
2018-02-16T05:24:07.234Z,0.99
2018-02-16T05:25:07.218Z,0.96
2018-02-16T05:26:07.217Z,0.99
2018-02-16T05:27:07.196Z,0.88
2018-02-16T05:28:07.213Z,0.83
2018-02-16T05:29:07.167Z,0.98
2018-02-16T05:30:07.152Z,0.88
2018-02-16T05:31:07.163Z,0.94
2018-02-16T05:32:07.148Z,0.84
2018-02-16T05:33:07.118Z,0.88
2018-02-16T05:34:07.104Z,0.86
2018-02-16T05:35:07.086Z,0.94
2018-02-16T05:36:07.097Z,0.88
2018-02-16T05:37:07.090Z,0.88
2018-02-16T05:38:07.052Z,0.86
2018-02-16T05:39:07.035Z,0.83
2018-02-16T05:40:07.027Z,0.88
2018-02-16T05:41:07.009Z,0.84
2018-02-16T05:42:07.014Z,0.91
2018-02-16T05:43:07.009Z,0.94
2018-02-16T05:44:06.969Z,0.91
2018-02-16T05:45:06.972Z,0.87
2018-02-16T05:46:06.967Z,0.86
2018-02-16T05:47:06.940Z,0.83
2018-02-16T05:48:06.913Z,0.86
2018-02-16T05:49:06.903Z,0.83
2018-02-16T05:50:06.908Z,0.91
2018-02-16T05:51:06.882Z,0.86
2018-02-16T05:52:06.869Z,0.88
2018-02-16T05:53:06.852Z,0.84
2018-02-16T05:54:06.854Z,0.86
2018-02-16T05:55:06.821Z,0.88
2018-02-16T05:56:06.807Z,0.83
2018-02-16T05:57:06.806Z,0.78
2018-02-16T05:58:06.816Z,0.86
2018-02-16T05:59:06.769Z,0.78
2018-02-16T06:00:06.757Z,0.88
2018-02-16T06:01:06.745Z,0.74
2018-02-16T06:02:06.730Z,0.86
2018-02-16T06:03:06.743Z,0.80
2018-02-16T06:04:06.716Z,0.80
2018-02-16T06:05:06.700Z,0.80
2018-02-16T06:06:06.678Z,0.78
2018-02-16T06:07:06.662Z,0.81
2018-02-16T06:08:06.650Z,0.74
2018-02-16T06:09:06.644Z,0.80
2018-02-16T06:10:06.632Z,0.81
2018-02-16T06:11:06.613Z,0.91
2018-02-16T06:12:06.609Z,0.77
2018-02-16T06:13:06.583Z,0.78
2018-02-16T06:14:06.572Z,0.74
2018-02-16T06:15:06.552Z,0.80
2018-02-16T06:16:06.579Z,0.74
2018-02-16T06:17:06.556Z,0.80
2018-02-16T06:18:06.526Z,0.74
2018-02-16T06:19:06.523Z,0.74
2018-02-16T06:20:06.488Z,0.73
2018-02-16T06:21:06.482Z,0.73
2018-02-16T06:22:06.467Z,0.77
2018-02-16T06:23:06.448Z,0.80
2018-02-16T06:24:06.456Z,0.78
2018-02-16T06:25:06.421Z,0.76
2018-02-16T06:26:06.432Z,0.74
2018-02-16T06:27:06.396Z,0.77
2018-02-16T06:28:06.383Z,0.73
2018-02-16T06:29:06.371Z,0.73
2018-02-16T06:30:06.389Z,0.76
2018-02-16T06:31:06.360Z,0.76
2018-02-16T06:32:06.331Z,0.74
2018-02-16T06:33:06.321Z,0.92
2018-02-16T06:34:06.306Z,0.78
2018-02-16T06:35:06.387Z,0.78
2018-02-16T06:36:06.280Z,0.70
2018-02-16T06:37:06.265Z,0.74
2018-02-16T06:38:06.251Z,0.80
2018-02-16T06:39:06.256Z,0.77
2018-02-16T06:40:06.222Z,0.73
2018-02-16T06:41:06.210Z,0.78
2018-02-16T06:42:06.198Z,0.78
2018-02-16T06:43:06.180Z,0.69
2018-02-16T06:44:06.189Z,0.74
2018-02-16T06:45:06.181Z,0.69
2018-02-16T06:46:06.176Z,0.73
2018-02-16T06:47:06.135Z,0.76
2018-02-16T06:48:06.113Z,0.73
2018-02-16T06:49:06.107Z,0.76
2018-02-16T06:50:06.101Z,0.78
2018-02-16T06:51:06.108Z,0.77
2018-02-16T06:52:06.069Z,0.83
2018-02-16T06:53:06.063Z,0.92
2018-02-16T06:54:06.047Z,0.83
2018-02-16T06:55:06.034Z,0.84
2018-02-16T06:56:06.015Z,0.88
2018-02-16T06:57:06.030Z,0.84
2018-02-16T06:58:06.000Z,0.86
2018-02-16T06:59:05.970Z,0.81
2018-02-16T07:00:05.972Z,0.83
2018-02-16T07:01:05.950Z,0.78
2018-02-16T07:02:05.933Z,0.77
2018-02-16T07:03:05.918Z,0.77
2018-02-16T07:04:05.903Z,0.80
2018-02-16T07:05:05.895Z,0.68
2018-02-16T07:06:05.900Z,0.80
2018-02-16T07:07:05.878Z,0.78
2018-02-16T07:08:05.850Z,0.84
2018-02-16T07:09:05.839Z,0.80
2018-02-16T07:10:05.828Z,0.83
2018-02-16T07:11:05.847Z,0.92
2018-02-16T07:12:05.824Z,0.88
2018-02-16T07:13:05.786Z,0.84
2018-02-16T07:14:05.772Z,0.86
2018-02-16T07:15:05.761Z,0.95
2018-02-16T07:16:05.747Z,0.84
2018-02-16T07:17:05.750Z,0.83
2018-02-16T07:18:05.719Z,0.99
2018-02-16T07:19:05.712Z,0.91
2018-02-16T07:20:05.703Z,1.02
2018-02-16T07:21:05.684Z,0.94
2018-02-16T07:22:05.667Z,0.94
2018-02-16T07:23:05.706Z,1.04
2018-02-16T07:24:05.648Z,0.92
2018-02-16T07:25:05.682Z,0.92
2018-02-16T07:26:05.651Z,1.01
2018-02-16T07:27:05.648Z,0.94
2018-02-16T07:28:05.587Z,0.92
2018-02-16T07:29:05.584Z,1.02
2018-02-16T07:30:05.606Z,0.98
2018-02-16T07:31:05.613Z,1.04
2018-02-16T07:32:05.562Z,0.99
2018-02-16T07:33:05.526Z,1.04
2018-02-16T07:34:05.515Z,0.99
2018-02-16T07:35:05.500Z,1.05
2018-02-16T07:36:05.493Z,1.02
2018-02-16T07:37:05.472Z,1.10
2018-02-16T07:38:05.461Z,1.01
2018-02-16T07:39:05.460Z,1.06
2018-02-16T07:40:05.433Z,1.01
2018-02-16T07:41:05.429Z,1.04
2018-02-16T07:42:05.416Z,1.14
2018-02-16T07:43:05.411Z,1.22
2018-02-16T07:44:05.387Z,1.19
2018-02-16T07:45:05.373Z,1.22
2018-02-16T07:46:05.367Z,1.31
2018-02-16T07:47:05.353Z,1.28
2018-02-16T07:48:05.336Z,1.24
2018-02-16T07:49:05.320Z,1.20
2018-02-16T07:50:05.309Z,1.20
2018-02-16T07:51:05.314Z,1.24
2018-02-16T07:52:05.305Z,1.31
2018-02-16T07:53:05.271Z,1.35
2018-02-16T07:54:05.261Z,1.34
2018-02-16T07:55:05.244Z,1.30
2018-02-16T07:56:05.239Z,1.31
2018-02-16T07:57:05.249Z,1.30
2018-02-16T07:58:05.215Z,1.44
2018-02-16T07:59:05.206Z,1.45
2018-02-16T08:00:05.197Z,1.45
2018-02-16T08:01:05.178Z,1.52
2018-02-16T08:02:05.164Z,1.67
2018-02-16T08:03:05.184Z,1.59
2018-02-16T08:04:05.156Z,1.62
2018-02-16T08:05:05.125Z,1.56
2018-02-16T08:06:05.115Z,1.60
2018-02-16T08:07:05.117Z,1.58
2018-02-16T08:08:05.086Z,1.56
2018-02-16T08:09:05.084Z,1.60
2018-02-16T08:10:05.060Z,1.67
2018-02-16T08:11:05.051Z,1.63
2018-02-16T08:12:05.054Z,1.62
2018-02-16T08:13:05.028Z,1.67
2018-02-16T08:14:05.018Z,1.76
2018-02-16T08:15:05.005Z,1.60
2018-02-16T08:16:04.989Z,1.70
2018-02-16T08:17:04.990Z,1.78
2018-02-16T08:18:04.968Z,1.73
2018-02-16T08:19:04.952Z,1.71
2018-02-16T08:20:04.941Z,1.66
2018-02-16T08:21:04.936Z,1.81
2018-02-16T08:22:04.915Z,1.84
2018-02-16T08:23:04.906Z,1.92
2018-02-16T08:24:04.925Z,1.92
2018-02-16T08:25:04.906Z,1.91
2018-02-16T08:26:04.889Z,1.97
2018-02-16T08:27:04.860Z,2.02
2018-02-16T08:28:04.851Z,2.00
2018-02-16T08:29:04.837Z,2.04
2018-02-16T08:30:04.829Z,2.00
2018-02-16T08:31:04.829Z,2.17
2018-02-16T08:32:04.841Z,2.08
2018-02-16T08:33:04.816Z,2.10
2018-02-16T08:34:04.810Z,2.18
2018-02-16T08:35:04.764Z,2.29
2018-02-16T08:36:04.756Z,2.28
2018-02-16T08:37:04.745Z,2.36
2018-02-16T08:38:04.740Z,2.32
2018-02-16T08:39:04.728Z,2.46
2018-02-16T08:40:04.712Z,2.50
2018-02-16T08:41:04.703Z,2.51
2018-02-16T08:42:04.695Z,2.39
2018-02-16T08:43:04.674Z,2.39
2018-02-16T08:44:04.665Z,2.61
2018-02-16T08:45:04.681Z,2.65
2018-02-16T08:46:04.639Z,2.71
2018-02-16T08:47:04.645Z,2.77
2018-02-16T08:48:04.635Z,2.80
2018-02-16T08:49:04.610Z,2.95
2018-02-16T08:50:04.603Z,3.11
2018-02-16T08:51:04.592Z,3.14
2018-02-16T08:52:04.578Z,3.32
2018-02-16T08:53:04.568Z,3.41
2018-02-16T08:54:04.570Z,3.60
2018-02-16T08:55:04.541Z,3.68
2018-02-16T08:56:04.554Z,3.80
2018-02-16T08:57:04.547Z,3.78
2018-02-16T08:58:04.526Z,3.74
2018-02-16T08:59:04.526Z,3.76
2018-02-16T09:00:04.527Z,3.88
2018-02-16T09:01:04.496Z,4.01
2018-02-16T09:02:04.492Z,4.14
2018-02-16T09:03:04.462Z,4.26
2018-02-16T09:04:04.454Z,4.22
2018-02-16T09:05:04.446Z,4.28
2018-02-16T09:06:04.439Z,4.41
2018-02-16T09:07:04.440Z,4.66
2018-02-16T09:08:04.459Z,4.87
2018-02-16T09:09:04.413Z,5.15
2018-02-16T09:10:04.637Z,5.39
2018-02-16T09:11:04.403Z,5.68
2018-02-16T09:12:04.410Z,5.79
2018-02-16T09:13:04.382Z,5.83
2018-02-16T09:14:04.398Z,6.12
2018-02-16T09:15:04.359Z,6.27
2018-02-16T09:16:04.356Z,6.51
2018-02-16T09:17:04.350Z,6.38
2018-02-16T09:18:04.347Z,6.26
2018-02-16T09:19:04.337Z,6.24
2018-02-16T09:20:04.354Z,6.39
2018-02-16T09:21:04.357Z,6.42
2018-02-16T09:22:04.322Z,6.46
2018-02-16T09:23:04.305Z,6.39
2018-02-16T09:24:04.293Z,6.41
2018-02-16T09:25:04.299Z,6.41
2018-02-16T09:26:04.284Z,6.63
2018-02-16T09:27:04.303Z,6.57
2018-02-16T09:28:04.299Z,6.31
2018-02-16T09:29:04.296Z,6.39
2018-02-16T09:30:04.256Z,6.63
2018-02-16T09:31:04.282Z,6.44
2018-02-16T09:32:04.261Z,6.48
2018-02-16T09:33:04.252Z,6.51
2018-02-16T09:34:04.282Z,6.57
2018-02-16T09:35:04.259Z,6.79
2018-02-16T09:36:04.249Z,6.99
2018-02-16T09:37:04.225Z,6.92
2018-02-16T09:38:04.210Z,6.77
2018-02-16T09:39:05.200Z,6.87
2018-02-16T09:40:04.230Z,6.78
2018-02-16T09:41:04.242Z,7.00
2018-02-16T09:42:04.193Z,6.95
2018-02-16T09:43:04.194Z,6.87
2018-02-16T09:44:04.203Z,6.74
2018-02-16T09:45:04.221Z,6.67
2018-02-16T09:46:04.231Z,6.77
2018-02-16T09:47:04.147Z,6.79
2018-02-16T09:48:04.217Z,6.79
2018-02-16T09:49:04.171Z,6.97
2018-02-16T09:50:04.146Z,6.93
2018-02-16T09:51:04.195Z,6.96
2018-02-16T09:52:04.149Z,7.06
2018-02-16T09:53:04.159Z,7.11
2018-02-16T09:54:04.150Z,6.95
2018-02-16T09:55:04.113Z,6.87
2018-02-16T09:56:04.204Z,6.95
2018-02-16T09:57:04.089Z,6.77
2018-02-16T09:58:04.099Z,6.72
2018-02-16T09:59:04.125Z,6.63
2018-02-16T10:00:04.076Z,6.69
2018-02-16T10:01:04.109Z,6.72
2018-02-16T10:02:04.049Z,6.72
2018-02-16T10:03:04.049Z,6.95
2018-02-16T10:04:04.041Z,7.03
2018-02-16T10:05:04.044Z,6.96
2018-02-16T10:06:04.047Z,7.03
2018-02-16T10:07:04.052Z,7.11
2018-02-16T10:08:04.014Z,7.20
2018-02-16T10:09:04.005Z,7.15
2018-02-16T10:10:04.004Z,7.14
2018-02-16T10:11:04.020Z,7.02
2018-02-16T10:12:04.005Z,7.07
2018-02-16T10:13:04.014Z,6.97
2018-02-16T10:14:03.999Z,6.89
2018-02-16T10:15:04.021Z,6.81
2018-02-16T10:16:04.006Z,6.77
2018-02-16T10:17:03.996Z,6.74
2018-02-16T10:18:03.950Z,6.69
2018-02-16T10:19:03.947Z,6.66
2018-02-16T10:20:03.955Z,6.63
2018-02-16T10:21:03.989Z,6.52
2018-02-16T10:22:03.997Z,6.56
2018-02-16T10:23:03.931Z,6.48
2018-02-16T10:24:03.945Z,6.60
2018-02-16T10:25:03.913Z,6.64
2018-02-16T10:26:03.910Z,6.66
2018-02-16T10:27:03.913Z,6.74
2018-02-16T10:28:03.897Z,6.81
2018-02-16T10:29:03.890Z,6.93
2018-02-16T10:30:03.940Z,6.97
2018-02-16T10:31:03.890Z,6.92
2018-02-16T10:32:03.862Z,7.00
2018-02-16T10:33:03.849Z,7.15
2018-02-16T10:34:03.842Z,7.05
2018-02-16T10:35:03.847Z,7.06
2018-02-16T10:36:03.859Z,7.13
2018-02-16T10:37:03.828Z,7.10
2018-02-16T10:38:03.836Z,7.17
2018-02-16T10:39:03.821Z,7.05
2018-02-16T10:40:03.812Z,6.97
2018-02-16T10:41:03.803Z,6.99
2018-02-16T10:42:03.792Z,7.10
2018-02-16T10:43:03.804Z,7.23
2018-02-16T10:44:03.923Z,7.31
2018-02-16T10:45:03.784Z,7.24
2018-02-16T10:46:03.777Z,7.20
2018-02-16T10:47:03.758Z,7.10
2018-02-16T10:48:03.765Z,7.06
2018-02-16T10:49:03.748Z,7.07
2018-02-16T10:50:03.755Z,7.05
2018-02-16T10:51:03.751Z,7.13
2018-02-16T10:52:03.748Z,7.21
2018-02-16T10:53:03.750Z,7.35
2018-02-16T10:54:03.722Z,7.48
2018-02-16T10:55:03.716Z,7.54
2018-02-16T10:56:03.724Z,7.51
2018-02-16T10:57:03.703Z,7.54
2018-02-16T10:58:03.703Z,7.42
2018-02-16T10:59:03.687Z,7.56
2018-02-16T11:00:03.730Z,7.61
2018-02-16T11:01:03.703Z,7.70
2018-02-16T11:02:03.684Z,7.75
2018-02-16T11:03:03.667Z,7.77
2018-02-16T11:04:03.664Z,7.83
2018-02-16T11:05:03.658Z,7.82
2018-02-16T11:06:03.650Z,8.01
2018-02-16T11:07:03.653Z,8.05
2018-02-16T11:08:03.648Z,8.05
2018-02-16T11:09:03.640Z,8.15
2018-02-16T11:10:03.635Z,8.26
2018-02-16T11:11:03.658Z,8.19
2018-02-16T11:12:03.620Z,8.15
2018-02-16T11:13:03.624Z,8.16
2018-02-16T11:14:03.614Z,8.06
2018-02-16T11:15:03.609Z,8.01
2018-02-16T11:16:03.606Z,7.88
2018-02-16T11:17:03.634Z,7.77
2018-02-16T11:18:03.620Z,7.79
2018-02-16T11:19:03.613Z,7.75
2018-02-16T11:20:03.665Z,7.72
2018-02-16T11:21:03.591Z,7.75
2018-02-16T11:22:03.586Z,7.73
2018-02-16T11:23:03.572Z,7.73
2018-02-16T11:24:03.565Z,7.80
2018-02-16T11:25:03.563Z,7.73
2018-02-16T11:26:03.560Z,7.80
2018-02-16T11:27:03.551Z,7.85
2018-02-16T11:28:03.545Z,7.95
2018-02-16T11:29:03.546Z,8.00
2018-02-16T11:30:03.530Z,8.09
2018-02-16T11:31:03.540Z,7.90
2018-02-16T11:32:03.540Z,7.98
2018-02-16T11:33:03.522Z,8.05
2018-02-16T11:34:03.518Z,8.06
2018-02-16T11:35:03.510Z,8.01
2018-02-16T11:36:03.507Z,8.05
2018-02-16T11:37:03.502Z,8.08
2018-02-16T11:38:03.503Z,8.09
2018-02-16T11:39:03.494Z,8.08
2018-02-16T11:40:03.500Z,8.10
2018-02-16T11:41:03.486Z,7.90
2018-02-16T11:42:03.536Z,7.88
2018-02-16T11:43:03.477Z,7.75
2018-02-16T11:44:03.498Z,7.91
2018-02-16T11:45:03.460Z,7.77
2018-02-16T11:46:03.460Z,7.88
2018-02-16T11:47:03.455Z,7.95
2018-02-16T11:48:03.490Z,8.12
2018-02-16T11:49:03.436Z,8.09
2018-02-16T11:50:03.433Z,8.18
2018-02-16T11:51:03.432Z,8.12
2018-02-16T11:52:03.425Z,8.15
2018-02-16T11:53:03.437Z,7.98
2018-02-16T11:54:03.441Z,7.98
2018-02-16T11:55:03.464Z,8.09
2018-02-16T11:56:03.404Z,8.03
2018-02-16T11:57:03.467Z,7.91
2018-02-16T11:58:03.400Z,8.08
2018-02-16T11:59:03.423Z,8.12
2018-02-16T12:00:03.387Z,8.28
2018-02-16T12:01:03.414Z,8.33
2018-02-16T12:02:03.388Z,8.41
2018-02-16T12:03:03.402Z,8.42
2018-02-16T12:04:03.402Z,8.46
2018-02-16T12:05:03.365Z,8.53
2018-02-16T12:06:03.378Z,8.66
2018-02-16T12:07:04.255Z,8.78
2018-02-16T12:08:03.351Z,8.82
2018-02-16T12:09:03.355Z,8.92
2018-02-16T12:10:03.343Z,8.91
2018-02-16T12:11:03.328Z,8.89
2018-02-16T12:12:03.330Z,9.03
2018-02-16T12:13:03.321Z,9.10
2018-02-16T12:14:03.314Z,9.10
2018-02-16T12:15:04.234Z,8.94
2018-02-16T12:16:04.245Z,8.88
2018-02-16T12:17:03.303Z,8.99
2018-02-16T12:18:03.298Z,8.88
2018-02-16T12:19:03.293Z,9.02
2018-02-16T12:20:03.297Z,9.13
2018-02-16T12:21:03.301Z,9.11
2018-02-16T12:22:03.315Z,9.16
2018-02-16T12:23:03.285Z,9.14
2018-02-16T12:24:03.276Z,9.28
2018-02-16T12:25:03.291Z,9.21
2018-02-16T12:26:03.276Z,9.32
2018-02-16T12:27:03.270Z,9.39
2018-02-16T12:28:03.270Z,9.18
2018-02-16T12:29:03.263Z,9.26
2018-02-16T12:30:03.283Z,9.46
2018-02-16T12:31:03.283Z,9.41
2018-02-16T12:32:03.276Z,9.40
2018-02-16T12:33:03.282Z,9.41
2018-02-16T12:34:03.260Z,9.44
2018-02-16T12:35:03.289Z,9.62
2018-02-16T12:36:03.248Z,9.68
2018-02-16T12:37:03.246Z,9.65
2018-02-16T12:38:03.245Z,9.69
2018-02-16T12:39:03.746Z,9.50
2018-02-16T12:40:03.242Z,9.47
2018-02-16T12:41:03.255Z,9.46
2018-02-16T12:42:03.262Z,9.48
2018-02-16T12:43:03.250Z,9.50
2018-02-16T12:44:03.246Z,9.44
2018-02-16T12:45:03.253Z,9.47
2018-02-16T12:46:03.254Z,9.47
2018-02-16T12:47:04.604Z,9.62
2018-02-16T12:48:03.263Z,9.62
2018-02-16T12:49:05.161Z,9.65
2018-02-16T12:50:03.206Z,9.74
2018-02-16T12:51:03.300Z,9.80
2018-02-16T12:52:03.224Z,9.69
2018-02-16T12:53:03.218Z,9.76
2018-02-16T12:54:03.221Z,9.84
2018-02-16T12:55:03.206Z,9.94
2018-02-16T12:56:03.186Z,9.98
2018-02-16T12:57:03.187Z,9.84
2018-02-16T12:58:03.187Z,9.87
2018-02-16T12:59:03.178Z,9.77
2018-02-16T13:00:03.177Z,9.79
2018-02-16T13:01:03.178Z,9.73
2018-02-16T13:02:03.168Z,9.55
2018-02-16T13:03:03.186Z,9.32
2018-02-16T13:04:03.164Z,9.26
2018-02-16T13:05:03.198Z,9.22
2018-02-16T13:06:03.233Z,9.22
2018-02-16T13:07:03.197Z,9.34
2018-02-16T13:08:03.143Z,9.41
2018-02-16T13:09:03.140Z,9.28
2018-02-16T13:10:03.142Z,9.34
2018-02-16T13:11:03.177Z,9.19
2018-02-16T13:12:03.162Z,9.26
2018-02-16T13:13:03.143Z,9.32
2018-02-16T13:14:03.118Z,9.34
2018-02-16T13:15:03.119Z,9.34
2018-02-16T13:16:03.116Z,9.36
2018-02-16T13:17:03.105Z,9.61
2018-02-16T13:18:03.112Z,9.59